createdAt,value
2018-07-04T00:01:24.497Z,101599.89
2018-07-04T00:04:04.591Z,101597.81
2018-07-04T00:06:44.792Z,101599.37
2018-07-04T00:09:25.092Z,101600.50
2018-07-04T00:12:05.243Z,101600.35
2018-07-04T00:14:45.393Z,101590.45
2018-07-04T00:17:25.792Z,101596.24
2018-07-04T00:20:05.944Z,101590.74
2018-07-04T00:22:46.268Z,101599.74
2018-07-04T00:25:26.483Z,101596.70
2018-07-04T00:28:06.640Z,101596.92
2018-07-04T00:30:46.831Z,101598.23
2018-07-04T00:33:27.000Z,101586.23
2018-07-04T00:36:07.270Z,101579.88
2018-07-04T00:38:47.584Z,101584.38
2018-07-04T00:41:27.815Z,101591.95
2018-07-04T00:44:08.046Z,101582.59
2018-07-04T00:46:48.209Z,101579.31
2018-07-04T00:49:28.680Z,101579.23
2018-07-04T00:52:08.938Z,101571.34
2018-07-04T00:54:49.074Z,101569.31
2018-07-04T00:57:29.245Z,101571.38
2018-07-04T01:00:09.524Z,101575.87
2018-07-04T01:02:49.791Z,101573.91
2018-07-04T01:05:30.004Z,101578.48
2018-07-04T01:08:10.129Z,101565.98
2018-07-04T01:10:50.347Z,101568.19
2018-07-04T01:13:30.496Z,101573.28
2018-07-04T01:16:10.740Z,101561.68
2018-07-04T01:18:50.961Z,101561.24
2018-07-04T01:21:31.309Z,101560.44
2018-07-04T01:24:11.479Z,101560.23
2018-07-04T01:26:51.705Z,101557.48
2018-07-04T01:29:31.783Z,101559.09
2018-07-04T01:32:12.135Z,101545.92
2018-07-04T01:34:58.045Z,101542.98
2018-07-04T01:37:43.719Z,101533.73
2018-07-04T01:40:23.991Z,101540.81
2018-07-04T01:43:04.275Z,101532.22
2018-07-04T01:45:44.453Z,101532.78
2018-07-04T01:48:24.618Z,101531.33
2018-07-04T01:51:04.769Z,101521.37
2018-07-04T01:53:45.114Z,101526.99
2018-07-04T01:56:25.373Z,101524.48
2018-07-04T01:59:05.683Z,101523.25
2018-07-04T02:01:45.903Z,101527.55
2018-07-04T02:04:26.267Z,101526.01
2018-07-04T02:07:06.629Z,101533.72
2018-07-04T02:09:46.807Z,101522.83
2018-07-04T02:12:26.939Z,101532.88
2018-07-04T02:15:07.262Z,101527.54
2018-07-04T02:17:47.357Z,101530.80
2018-07-04T02:20:27.588Z,101532.86
2018-07-04T02:23:07.783Z,101535.03
2018-07-04T02:25:48.171Z,101533.48
2018-07-04T02:28:28.479Z,101532.52
2018-07-04T02:31:08.633Z,101531.42
2018-07-04T02:33:48.908Z,101529.36
2018-07-04T02:36:29.245Z,101523.03
2018-07-04T02:39:09.479Z,101525.80
2018-07-04T02:41:49.710Z,101525.54
2018-07-04T02:44:29.849Z,101521.72
2018-07-04T02:47:15.525Z,101521.95
2018-07-04T02:49:55.857Z,101513.92
2018-07-04T02:52:36.157Z,101517.47
2018-07-04T02:55:16.379Z,101505.44
2018-07-04T02:57:56.645Z,101502.27
2018-07-04T03:00:36.677Z,101503.69
2018-07-04T03:03:17.002Z,101491.81
2018-07-04T03:05:57.413Z,101492.38
2018-07-04T03:08:37.809Z,101498.73
2018-07-04T03:11:18.018Z,101493.42
2018-07-04T03:13:58.289Z,101494.31
2018-07-04T03:16:38.372Z,101493.12
2018-07-04T03:19:18.715Z,101494.05
2018-07-04T03:21:58.823Z,101495.88
2018-07-04T03:24:39.129Z,101495.20
2018-07-04T03:27:19.400Z,101498.05
2018-07-04T03:29:59.535Z,101498.48
2018-07-04T03:32:39.657Z,101492.47
2018-07-04T03:35:19.903Z,101492.20
2018-07-04T03:38:00.060Z,101492.83
2018-07-04T03:40:40.371Z,101487.52
2018-07-04T03:43:20.536Z,101484.48
2018-07-04T03:46:00.808Z,101495.00
2018-07-04T03:48:46.560Z,101498.10
2018-07-04T03:51:26.780Z,101500.77
2018-07-04T03:54:07.014Z,101495.77
2018-07-04T03:56:47.350Z,101486.75
2018-07-04T03:59:27.474Z,101492.50
2018-07-04T04:02:07.746Z,101494.42
2018-07-04T04:04:47.818Z,101487.91
2018-07-04T04:07:27.966Z,101493.00
2018-07-04T04:10:08.251Z,101507.45
2018-07-04T04:12:48.528Z,101503.55
2018-07-04T04:15:28.876Z,101499.11
2018-07-04T04:18:09.292Z,101503.41
2018-07-04T04:20:49.460Z,101496.82
2018-07-04T04:23:29.668Z,101493.48
2018-07-04T04:26:09.888Z,101496.75
2018-07-04T04:28:50.184Z,101504.28
2018-07-04T04:31:30.404Z,101498.10
2018-07-04T04:34:10.760Z,101498.44
2018-07-04T04:36:56.606Z,101502.16
2018-07-04T04:39:36.734Z,101515.50
2018-07-04T04:42:16.996Z,101514.27
2018-07-04T04:44:57.104Z,101517.44
2018-07-04T04:47:37.320Z,101515.44
2018-07-04T04:50:17.600Z,101513.03
2018-07-04T04:52:57.886Z,101511.81
2018-07-04T04:55:38.246Z,101521.54
2018-07-04T04:58:18.409Z,101517.78
2018-07-04T05:00:58.590Z,101513.64
2018-07-04T05:03:38.832Z,101518.28
2018-07-04T05:06:19.235Z,101505.83
2018-07-04T05:08:59.420Z,101502.38
2018-07-04T05:11:39.624Z,101502.48
2018-07-04T05:14:19.798Z,101501.48
2018-07-04T05:17:00.032Z,101508.67
2018-07-04T05:19:40.200Z,101503.41
2018-07-04T05:22:20.445Z,101503.88
2018-07-04T05:25:00.598Z,101504.08
2018-07-04T05:27:41.036Z,101507.03
2018-07-04T05:30:21.304Z,101504.61
2018-07-04T05:33:01.620Z,101505.52
2018-07-04T05:35:41.732Z,101506.83
2018-07-04T05:38:22.098Z,101490.48
2018-07-04T05:41:02.253Z,101511.31
2018-07-04T05:43:42.449Z,101504.42
2018-07-04T05:46:22.795Z,101499.64
2018-07-04T05:49:02.917Z,101506.08
2018-07-04T05:51:43.044Z,101504.82
2018-07-04T05:54:23.427Z,101498.34
2018-07-04T05:57:03.545Z,101493.12
2018-07-04T05:59:43.894Z,101489.17
2018-07-04T06:02:24.072Z,101485.75
2018-07-04T06:05:04.334Z,101490.11
2018-07-04T06:07:44.480Z,101483.38
2018-07-04T06:10:24.740Z,101495.33
2018-07-04T06:13:04.852Z,101475.13
2018-07-04T06:15:45.015Z,101478.22
2018-07-04T06:18:25.296Z,101481.78
2018-07-04T06:21:05.496Z,101487.77
2018-07-04T06:23:45.766Z,101493.13
2018-07-04T06:26:26.110Z,101490.07
2018-07-04T06:29:06.304Z,101483.70
2018-07-04T06:31:46.587Z,101489.81
2018-07-04T06:34:26.748Z,101492.13
2018-07-04T06:37:07.249Z,101492.31
2018-07-04T06:39:35.063Z,101487.60
2018-07-04T06:42:02.901Z,101486.23
2018-07-04T06:44:30.780Z,101492.64
2018-07-04T06:46:58.649Z,101493.56
2018-07-04T06:49:26.484Z,101494.95
2018-07-04T06:51:54.353Z,101489.14
2018-07-04T06:54:22.250Z,101498.20
2018-07-04T06:56:50.084Z,101501.94
2018-07-04T06:59:17.957Z,101504.72
2018-07-04T07:01:45.809Z,101497.06
2018-07-04T07:04:26.138Z,101490.55
2018-07-04T07:07:06.467Z,101488.84
2018-07-04T07:09:46.750Z,101496.49
2018-07-04T07:12:26.908Z,101500.44
2018-07-04T07:15:07.328Z,101506.11
2018-07-04T07:17:47.505Z,101495.19
2018-07-04T07:20:27.808Z,101499.92
2018-07-04T07:23:08.123Z,101503.73
2018-07-04T07:25:48.315Z,101499.91
2018-07-04T07:28:28.377Z,101492.81
2018-07-04T07:31:08.531Z,101494.83
2018-07-04T07:33:48.721Z,101494.77
2018-07-04T07:36:29.076Z,101501.92
2018-07-04T07:39:09.223Z,101496.20
2018-07-04T07:41:53.708Z,101494.54
2018-07-04T07:44:33.956Z,101493.84
2018-07-04T07:47:19.624Z,101501.70
2018-07-04T07:49:59.958Z,101493.21
2018-07-04T07:52:40.263Z,101486.81
2018-07-04T07:55:21.026Z,101490.55
2018-07-04T07:58:01.211Z,101491.20
2018-07-04T08:00:41.398Z,101492.56
2018-07-04T08:03:21.803Z,101483.29
2018-07-04T08:06:01.772Z,101481.95
2018-07-04T08:08:47.611Z,101487.45
2018-07-04T08:11:27.730Z,101486.65
2018-07-04T08:14:07.893Z,101479.98
2018-07-04T08:16:48.161Z,101480.82
2018-07-04T08:19:28.377Z,101484.19
2018-07-04T08:22:08.572Z,101485.89
2018-07-04T08:24:48.961Z,101489.73
2018-07-04T08:27:29.172Z,101485.45
2018-07-04T08:30:09.307Z,101488.88
2018-07-04T08:32:49.451Z,101485.08
2018-07-04T08:35:29.803Z,101482.20
2018-07-04T08:38:10.021Z,101482.95
2018-07-04T08:40:50.391Z,101472.12
2018-07-04T08:43:30.533Z,101466.94
2018-07-04T08:46:10.825Z,101473.07
2018-07-04T08:48:50.973Z,101467.14
2018-07-04T08:51:31.345Z,101469.11
2018-07-04T08:54:17.309Z,101465.80
2018-07-04T08:56:57.534Z,101466.88
2018-07-04T08:59:37.688Z,101464.37
2018-07-04T09:02:17.975Z,101470.42
2018-07-04T09:04:58.194Z,101472.89
2018-07-04T09:07:38.385Z,101477.37
2018-07-04T09:10:18.651Z,101471.27
2018-07-04T09:12:58.808Z,101467.19
2018-07-04T09:15:39.173Z,101475.14
2018-07-04T09:18:19.529Z,101475.62
2018-07-04T09:20:59.629Z,101456.63
2018-07-04T09:23:39.979Z,101465.11
2018-07-04T09:26:20.109Z,101470.72
2018-07-04T09:29:00.226Z,101470.17
2018-07-04T09:31:40.371Z,101475.45
2018-07-04T09:34:20.685Z,101473.80
2018-07-04T09:37:01.014Z,101476.10
2018-07-04T09:39:41.343Z,101475.52
2018-07-04T09:42:21.603Z,101475.44
2018-07-04T09:45:01.890Z,101480.55
2018-07-04T09:47:42.013Z,101474.26
2018-07-04T09:50:22.361Z,101474.48
2018-07-04T10:31:53.469Z,101448.14
2018-07-04T10:34:33.652Z,101440.87
2018-07-04T10:37:13.860Z,101437.97
2018-07-04T10:39:54.028Z,101434.02
2018-07-04T10:42:34.263Z,101435.11
2018-07-04T10:45:14.416Z,101435.64
2018-07-04T10:47:54.535Z,101433.48
2018-07-04T10:50:34.847Z,101426.34
2018-07-04T10:53:15.035Z,101430.37
2018-07-04T10:55:55.201Z,101432.45
2018-07-04T10:58:35.540Z,101430.16
2018-07-04T11:01:15.964Z,101431.52
2018-07-04T11:03:56.049Z,101419.01
2018-07-04T11:06:36.507Z,101420.05
2018-07-04T11:09:16.729Z,101404.81
2018-07-04T11:11:56.920Z,101416.66
2018-07-04T11:14:37.303Z,101408.28
2018-07-04T11:17:17.261Z,101406.14
2018-07-04T11:19:57.613Z,101409.45
2018-07-04T11:22:37.767Z,101405.72
2018-07-04T11:25:17.879Z,101404.09
2018-07-04T11:27:57.969Z,101405.89
2018-07-04T11:30:38.272Z,101404.90
2018-07-04T11:33:18.445Z,101403.84
2018-07-04T11:35:58.602Z,101396.35
2018-07-04T11:38:38.793Z,101398.06
2018-07-04T11:41:19.138Z,101402.05
2018-07-04T11:43:59.386Z,101394.64
2018-07-04T11:46:27.237Z,101402.98
2018-07-04T11:48:55.095Z,101393.36
2018-07-04T11:51:22.933Z,101393.09
2018-07-04T11:53:50.869Z,101398.95
2018-07-04T11:56:18.714Z,101398.33
2018-07-04T11:58:46.567Z,101399.39
2018-07-04T12:01:14.865Z,101390.02
2018-07-04T12:03:55.238Z,101396.91
2018-07-04T12:06:35.519Z,101396.30
2018-07-04T12:09:09.090Z,101399.47
2018-07-04T12:11:36.960Z,101393.38
2018-07-04T12:14:04.863Z,101405.80
2018-07-04T12:16:32.693Z,101393.80
2018-07-04T12:19:00.547Z,101393.25
2018-07-04T12:21:28.396Z,101389.45
2018-07-04T12:23:56.215Z,101393.65
2018-07-04T12:26:24.099Z,101393.59
2018-07-04T12:28:51.969Z,101393.89
2018-07-04T12:31:19.805Z,101390.94
2018-07-04T12:33:47.675Z,101394.00
2018-07-04T12:36:15.482Z,101396.33
2018-07-04T12:38:43.362Z,101388.78
2018-07-04T12:41:12.400Z,101395.66
2018-07-04T12:43:40.383Z,101402.17
2018-07-04T12:46:08.284Z,101395.92
2018-07-04T12:48:36.163Z,101396.70
2018-07-04T12:51:04.012Z,101398.32
2018-07-04T12:53:32.739Z,101392.09
2018-07-04T12:56:13.076Z,101401.90
2018-07-04T12:58:53.206Z,101385.49
2018-07-04T13:01:33.359Z,101389.81
2018-07-04T13:04:13.556Z,101388.66
2018-07-04T13:06:53.756Z,101387.53
2018-07-04T13:09:33.996Z,101387.84
2018-07-04T13:12:14.392Z,101383.36
2018-07-04T13:14:54.661Z,101373.50
2018-07-04T13:17:34.884Z,101366.74
2018-07-04T13:20:15.240Z,101364.16
2018-07-04T13:23:00.968Z,101365.65
2018-07-04T13:25:41.162Z,101370.83
2018-07-04T13:28:21.328Z,101377.55
2018-07-04T13:31:01.445Z,101380.62
2018-07-04T13:33:41.840Z,101368.14
2018-07-04T13:36:22.158Z,101371.09
2018-07-04T13:39:02.714Z,101376.30
2018-07-04T13:41:43.100Z,101391.51
2018-07-04T13:44:23.371Z,101374.92
2018-07-04T13:47:03.492Z,101371.77
2018-07-04T13:49:43.914Z,101386.70
2018-07-04T13:52:23.866Z,101385.42
2018-07-04T13:55:04.280Z,101380.38
2018-07-04T13:57:44.410Z,101391.11
2018-07-04T14:00:24.664Z,101390.94
2018-07-04T14:03:04.939Z,101390.38
2018-07-04T14:05:44.962Z,101400.47
2018-07-04T14:08:25.167Z,101393.03
2018-07-04T14:11:05.262Z,101392.08
2018-07-04T14:13:45.371Z,101397.72
2018-07-04T14:16:25.750Z,101401.80
2018-07-04T14:19:06.484Z,101401.09
2018-07-04T14:21:46.556Z,101398.73
2018-07-04T14:24:26.889Z,101395.80
2018-07-04T14:27:07.221Z,101392.22
2018-07-04T14:29:47.406Z,101394.00
2018-07-04T14:32:27.863Z,101387.70
2018-07-04T14:35:09.935Z,101396.66
2018-07-04T14:37:50.199Z,101399.02
2018-07-04T14:40:30.369Z,101385.09
2018-07-04T14:43:10.699Z,101379.80
2018-07-04T14:45:50.940Z,101380.35
2018-07-04T14:48:31.168Z,101382.60
2018-07-04T14:51:11.448Z,101395.91
2018-07-04T14:53:51.896Z,101379.60
2018-07-04T14:56:32.066Z,101386.84
2018-07-04T14:59:12.400Z,101383.16
2018-07-04T15:01:52.666Z,101377.20
2018-07-04T15:04:32.996Z,101376.64
2018-07-04T15:07:13.146Z,101382.00
2018-07-04T15:09:53.304Z,101380.12
2018-07-04T15:12:33.570Z,101375.38
2018-07-04T15:15:13.600Z,101374.09
2018-07-04T15:17:53.751Z,101375.34
2018-07-04T15:20:39.697Z,101364.92
2018-07-04T15:23:20.381Z,101366.16
2018-07-04T15:26:00.721Z,101368.14
2018-07-04T15:28:40.886Z,101364.36
2018-07-04T15:31:21.281Z,101367.84
2018-07-04T15:34:01.527Z,101369.95
2018-07-04T15:36:41.605Z,101362.47
2018-07-04T15:39:21.878Z,101372.39
2018-07-04T15:42:01.951Z,101376.05
2018-07-04T15:44:42.152Z,101370.65
2018-07-04T15:47:22.356Z,101373.80
2018-07-04T15:50:02.601Z,101366.58
2018-07-04T15:52:42.900Z,101370.80
2018-07-04T15:55:23.138Z,101378.27
2018-07-04T15:58:03.243Z,101369.69
2018-07-04T16:00:43.455Z,101377.35
2018-07-04T16:03:23.780Z,101369.80
2018-07-04T16:06:03.889Z,101369.42
2018-07-04T16:08:44.016Z,101365.87
2018-07-04T16:11:24.061Z,101370.78
2018-07-04T16:14:04.193Z,101374.41
2018-07-04T16:16:44.433Z,101364.02
2018-07-04T16:19:25.112Z,101368.35
2018-07-04T16:22:05.333Z,101360.25
2018-07-04T16:24:45.715Z,101359.86
2018-07-04T16:27:25.935Z,101351.38
2018-07-04T16:30:06.114Z,101357.16
2018-07-04T16:32:46.305Z,101357.00
2018-07-04T16:35:26.612Z,101346.13
2018-07-04T16:38:06.946Z,101360.44
2018-07-04T16:40:47.254Z,101354.42
2018-07-04T16:43:27.810Z,101349.02
2018-07-04T16:46:08.095Z,101343.44
2018-07-04T16:48:48.294Z,101341.41
2018-07-04T16:51:28.611Z,101338.63
2018-07-04T16:54:08.929Z,101327.73
2018-07-04T16:56:49.153Z,101328.08
2018-07-04T16:59:29.366Z,101331.38
2018-07-04T17:02:09.516Z,101338.82
2018-07-04T17:04:49.704Z,101329.61
2018-07-04T17:07:29.980Z,101330.45
2018-07-04T17:10:10.205Z,101336.85
2018-07-04T17:12:50.437Z,101337.12
2018-07-04T17:15:30.795Z,101336.13
2018-07-04T17:18:10.915Z,101334.72
2018-07-04T17:20:51.343Z,101342.78
2018-07-04T17:23:31.632Z,101331.01
2018-07-04T17:26:11.986Z,101330.28
2018-07-04T17:28:52.480Z,101323.77
2018-07-04T17:31:34.823Z,101323.67
2018-07-04T17:34:15.126Z,101324.44
2018-07-04T17:37:00.967Z,101323.94
2018-07-04T17:39:41.420Z,101329.34
2018-07-04T17:42:21.563Z,101332.79
2018-07-04T17:45:01.679Z,101335.94
2018-07-04T17:47:41.885Z,101335.28
2018-07-04T17:50:22.176Z,101336.55
2018-07-04T17:53:02.328Z,101341.09
2018-07-04T17:55:42.542Z,101336.13
2018-07-04T17:58:22.944Z,101334.01
2018-07-04T18:01:03.063Z,101342.97
2018-07-04T18:03:43.234Z,101344.85
2018-07-04T18:06:23.697Z,101330.90
2018-07-04T18:09:04.769Z,101328.20
2018-07-04T18:11:45.096Z,101330.50
2018-07-04T18:14:25.293Z,101334.89
2018-07-04T18:17:05.599Z,101338.54
2018-07-04T18:19:47.745Z,101347.27
2018-07-04T18:22:27.915Z,101335.31
2018-07-04T18:25:08.114Z,101331.66
2018-07-04T18:27:48.447Z,101335.18
2018-07-04T18:30:32.010Z,101335.69
2018-07-04T18:33:12.254Z,101345.04
2018-07-04T18:35:52.820Z,101342.86
2018-07-04T18:38:33.017Z,101337.91
2018-07-04T18:41:13.136Z,101343.91
2018-07-04T18:43:53.469Z,101339.34
2018-07-04T18:46:33.723Z,101328.70
2018-07-04T18:49:13.997Z,101336.20
2018-07-04T18:51:54.304Z,101336.31
2018-07-04T18:54:34.681Z,101337.33
2018-07-04T18:57:14.919Z,101335.08
2018-07-04T18:59:55.299Z,101332.01
2018-07-04T19:02:35.665Z,101333.75
2018-07-04T19:05:15.781Z,101336.38
2018-07-04T19:07:56.067Z,101322.90
2018-07-04T19:10:36.235Z,101319.86
2018-07-04T19:13:16.625Z,101318.30
2018-07-04T19:15:56.780Z,101319.86
2018-07-04T19:18:36.943Z,101322.68
2018-07-04T19:21:17.125Z,101322.42
2018-07-04T19:23:57.563Z,101319.39
2018-07-04T19:26:37.763Z,101312.88
2018-07-04T19:29:18.115Z,101309.09
2018-07-04T19:31:58.231Z,101310.91
2018-07-04T19:34:38.442Z,101317.27
2018-07-04T19:37:18.502Z,101310.45
2018-07-04T19:39:58.689Z,101307.81
2018-07-04T19:42:38.731Z,101304.63
2018-07-04T19:45:19.001Z,101303.88
2018-07-04T19:47:59.272Z,101308.56
2018-07-04T19:50:39.457Z,101312.70
2018-07-04T19:53:19.610Z,101313.47
2018-07-04T19:55:59.937Z,101316.64
2018-07-04T19:58:40.197Z,101325.74
2018-07-04T20:01:20.508Z,101324.38
2018-07-04T20:04:00.755Z,101329.16
2018-07-04T20:06:40.895Z,101327.46
2018-07-04T20:09:21.205Z,101337.00
2018-07-04T20:12:01.383Z,101334.29
2018-07-04T20:14:41.730Z,101328.61
2018-07-04T20:17:21.909Z,101326.27
2018-07-04T20:20:02.227Z,101323.52
2018-07-04T20:22:42.587Z,101321.30
2018-07-04T20:25:22.815Z,101322.08
2018-07-04T20:28:02.911Z,101330.53
2018-07-04T20:30:43.235Z,101332.05
2018-07-04T20:33:23.589Z,101344.41
2018-07-04T20:36:03.820Z,101345.37
2018-07-04T20:38:44.330Z,101340.55
2018-07-04T20:41:24.649Z,101339.92
2018-07-04T20:44:04.839Z,101350.92
2018-07-04T20:46:44.978Z,101351.05
2018-07-04T20:49:30.647Z,101338.72
2018-07-04T20:52:10.811Z,101335.38
2018-07-04T20:54:51.065Z,101335.38
2018-07-04T20:57:31.212Z,101332.06
2018-07-04T21:00:11.459Z,101339.25
2018-07-04T21:02:51.713Z,101343.84
2018-07-04T21:05:32.015Z,101343.88
2018-07-04T21:08:12.308Z,101338.23
2018-07-04T21:10:52.385Z,101346.97
2018-07-04T21:13:32.890Z,101354.28
2018-07-04T21:16:13.193Z,101365.61
2018-07-04T21:18:53.338Z,101363.50
2018-07-04T21:21:39.245Z,101366.84
2018-07-04T21:24:23.400Z,101369.95
2018-07-04T21:27:03.809Z,101373.42
2018-07-04T21:29:44.013Z,101378.24
2018-07-04T21:32:24.068Z,101380.22
2018-07-04T21:35:04.233Z,101384.92
2018-07-04T21:37:44.533Z,101390.63
2018-07-04T21:40:24.771Z,101389.49
2018-07-04T21:43:04.977Z,101385.78
2018-07-04T21:45:45.303Z,101391.96
2018-07-04T21:48:25.593Z,101390.38
2018-07-04T21:51:06.286Z,101389.61
2018-07-04T21:53:46.984Z,101387.89
2018-07-04T21:56:27.110Z,101386.91
2018-07-04T21:59:07.373Z,101386.30
2018-07-04T22:01:47.545Z,101385.38
2018-07-04T22:04:27.877Z,101379.87
2018-07-04T22:07:08.174Z,101388.02
2018-07-04T22:09:48.229Z,101387.91
2018-07-04T22:12:28.571Z,101388.45
2018-07-04T22:15:08.916Z,101386.74
2018-07-04T22:17:48.989Z,101381.08
2018-07-04T22:20:29.285Z,101378.95
2018-07-04T22:23:09.567Z,101376.84
2018-07-04T22:25:49.811Z,101380.16
2018-07-04T22:28:30.206Z,101382.55
2018-07-04T22:31:10.434Z,101375.13
2018-07-04T22:33:50.873Z,101377.05
2018-07-04T22:36:31.050Z,101381.95
2018-07-04T22:39:11.321Z,101386.42
2018-07-04T22:41:51.525Z,101396.71
2018-07-04T22:44:31.805Z,101396.60
2018-07-04T22:47:12.121Z,101397.27
2018-07-04T22:49:52.611Z,101385.89
2018-07-04T22:52:32.992Z,101384.25
2018-07-04T22:55:13.141Z,101382.76
2018-07-04T22:57:53.457Z,101375.55
2018-07-04T23:00:33.705Z,101380.02
2018-07-04T23:03:13.952Z,101381.24
2018-07-04T23:05:54.171Z,101378.12
2018-07-04T23:08:34.458Z,101379.37
2018-07-04T23:11:14.527Z,101370.98
2018-07-04T23:13:54.823Z,101376.58
2018-07-04T23:16:34.909Z,101370.10
2018-07-04T23:19:15.303Z,101372.22
2018-07-04T23:21:55.701Z,101381.48
2018-07-04T23:24:35.887Z,101373.46
2018-07-04T23:27:16.137Z,101369.17
2018-07-04T23:29:56.562Z,101367.54
2018-07-04T23:32:36.787Z,101363.23
2018-07-04T23:35:17.060Z,101370.64
2018-07-04T23:37:57.313Z,101367.16
2018-07-04T23:40:37.599Z,101373.59
2018-07-04T23:43:17.943Z,101377.66
2018-07-04T23:45:58.009Z,101381.62
2018-07-04T23:48:38.105Z,101372.13
2018-07-04T23:51:18.862Z,101374.86
2018-07-04T23:53:59.223Z,101373.73
2018-07-04T23:56:39.437Z,101363.48
2018-07-04T23:59:19.577Z,101356.44
